Time;durP1;ratioP1;P1;durP2;ratioP2;P2;SDS_P1;SDS_P2;PMS_P1;PMS_P2;Temp;Humidity;BMP_temperature;BMP_pressure;BME280_temperature;BME280_humidity;BME280_pressure;Samples;Min_cycle;Max_cycle;Signal;HPM_P1;HPM_P2
2023/10/01 07:23:12;;;;;;;10.57;6.60;;;;;;;-145.79;85.61;78193.41;5310164;27;20406;-74
2023/10/01 07:25:47;;;;;;;9.25;7.07;;;;;;;-145.79;85.67;78178.56;5300003;28;20032;-74
2023/10/01 07:28:19;;;;;;;12.30;7.78;;;;;;;-145.79;85.81;78172.22;5301221;28;20032;-75
2023/10/01 07:30:56;;;;;;;10.85;7.97;;;;;;;-145.79;85.59;78161.63;5293885;28;20021;-75
2023/10/01 07:33:31;;;;;;;10.18;7.45;;;;;;;-145.79;85.32;78157.38;5299430;28;20034;-75
2023/10/01 07:36:10;;;;;;;14.63;8.32;;;;;;;-145.79;85.13;78153.13;5300233;28;20506;-75
2023/10/01 07:38:49;;;;;;;10.55;7.90;;;;;;;-145.79;85.19;78142.53;5287281;28;20024;-75
2023/10/01 07:41:20;;;;;;;11.25;8.10;;;;;;;-145.79;85.00;78131.94;5299679;28;20028;-74
2023/10/01 07:43:55;;;;;;;11.90;8.43;;;;;;;-145.79;85.07;78119.22;5300496;28;20028;-75
2023/10/01 07:46:26;;;;;;;12.90;7.50;;;;;;;-145.79;84.77;78119.22;5298231;28;20163;-74
2023/10/01 07:49:00;;;;;;;10.77;8.00;;;;;;;-145.79;84.43;78110.72;5291728;28;20103;-74
2023/10/01 07:51:44;;;;;;;11.52;7.38;;;;;;;-145.79;84.28;78104.38;5298703;28;20117;-74
2023/10/01 07:54:22;;;;;;;11.98;7.38;;;;;;;-145.79;84.14;78100.13;5297735;28;20032;-74
2023/10/01 07:56:57;;;;;;;10.68;7.32;;;;;;;-145.79;83.75;78095.91;5291557;28;20468;-74
2023/10/01 07:59:28;;;;;;;11.38;7.57;;;;;;;-145.79;84.14;78081.06;5296848;28;20032;-74
2023/10/01 08:03:27;;;;;;;7.82;6.70;;;;;;;-145.79;83.73;78081.06;5299097;28;20028;-74
2023/10/01 08:04:58;;;;;;;9.80;7.03;;;;;;;-145.79;83.54;78068.34;5281168;28;20044;-74
2023/10/01 08:07:47;;;;;;;9.45;8.18;;;;;;;-145.79;83.33;78059.84;5278665;28;20413;-74
2023/10/01 08:10:19;;;;;;;10.40;8.18;;;;;;;-145.79;82.98;78040.78;5292039;28;20056;-74
2023/10/01 08:15:31;;;;;;;10.18;7.90;;;;;;;-145.79;82.80;78028.06;5299123;28;20116;-77
2023/10/01 08:21:15;;;;;;;9.88;7.50;;;;;;;-145.79;82.32;78013.22;5254218;28;20037;-75
2023/10/01 08:23:48;;;;;;;13.40;6.75;;;;;;;-145.79;82.39;78002.63;5277507;28;20031;-73
2023/10/01 08:26:43;;;;;;;13.60;8.40;;;;;;;-145.79;82.66;77996.25;5277888;28;20029;-74
2023/10/01 08:29:16;;;;;;;12.23;8.23;;;;;;;-145.79;82.56;77985.66;5295431;28;20717;-73
2023/10/01 08:34:24;;;;;;;12.70;7.53;;;;;;;-145.79;81.82;77987.78;5284353;28;20425;-73
2023/10/01 08:36:58;;;;;;;11.25;7.45;;;;;;;-145.79;81.61;77981.41;5281991;28;20032;-71
2023/10/01 08:39:44;;;;;;;10.90;7.60;;;;;;;-145.79;81.48;77979.28;5272160;28;20017;-72
2023/10/01 08:42:17;;;;;;;10.02;7.65;;;;;;;-145.79;82.13;77964.47;5283338;28;20067;-72
2023/10/01 08:44:50;;;;;;;16.70;13.23;;;;;;;-145.79;81.81;77953.84;5286608;28;20021;-73
2023/10/01 08:47:44;;;;;;;12.63;7.55;;;;;;;-145.79;81.37;77945.38;5285369;28;20025;-71
2023/10/01 08:50:29;;;;;;;13.15;8.98;;;;;;;-145.79;81.11;77934.78;5277409;28;20029;-75
2023/10/01 08:53:10;;;;;;;12.95;8.07;;;;;;;-145.79;81.03;77928.41;5269520;28;20433;-75
2023/10/01 09:01:14;;;;;;;10.98;7.55;;;;;;;-145.79;81.09;77915.69;5306615;28;20119;-75
2023/10/01 09:03:51;;;;;;;11.63;7.90;;;;;;;-145.79;80.84;77907.22;5305662;28;20107;-75
2023/10/01 09:06:27;;;;;;;13.52;8.25;;;;;;;-145.79;80.78;77900.84;5306380;28;20105;-75
2023/10/01 09:09:19;;;;;;;;;;;;;;;-145.79;81.02;77886.00;5306655;28;20035;-75
2023/10/01 09:11:58;;;;;;;12.05;7.10;;;;;;;-145.79;81.13;77873.31;5292723;28;19920;-75
2023/10/01 09:14:38;;;;;;;11.45;7.75;;;;;;;-145.79;81.23;77849.97;5287703;28;20119;-78
2023/10/01 09:17:24;;;;;;;13.63;7.80;;;;;;;-145.79;80.75;77830.91;5285065;28;20352;-75
2023/10/01 09:20:06;;;;;;;21.38;7.95;;;;;;;-145.79;79.75;77818.19;5285207;28;20027;-77
2023/10/01 09:25:21;;;;;;;15.25;8.38;;;;;;;-145.79;79.54;77799.09;5299937;28;20089;-75
2023/10/01 09:28:29;;;;;;;11.13;7.72;;;;;;;-145.79;79.04;77788.50;5295330;28;20098;-75
2023/10/01 09:31:19;;;;;;;13.27;8.40;;;;;;;-145.79;78.68;77767.31;5305592;28;20096;-76
2023/10/01 09:33:55;;;;;;;12.52;7.50;;;;;;;-145.79;78.33;77758.81;5297112;28;20021;-76
2023/10/01 09:36:35;;;;;;;12.18;7.82;;;;;;;-145.79;78.15;77746.09;5304644;28;20020;-74
2023/10/01 09:39:06;;;;;;;11.00;8.07;;;;;;;-145.79;77.85;77733.38;5315696;28;20024;-72
2023/10/01 09:41:40;;;;;;;10.38;7.63;;;;;;;-145.79;77.60;77722.78;5312814;28;20034;-73
2023/10/01 09:44:14;;;;;;;11.88;6.65;;;;;;;-145.79;78.00;77716.44;5314574;28;20084;-75
2023/10/01 09:46:48;;;;;;;11.93;8.23;;;;;;;-145.79;77.37;77720.66;5309636;28;20031;-73
2023/10/01 09:49:30;;;;;;;10.65;7.47;;;;;;;-145.79;78.27;77710.06;5313098;28;20031;-75
2023/10/01 09:52:05;;;;;;;12.13;8.02;;;;;;;-145.79;77.61;77695.22;5312627;28;20475;-76
2023/10/01 09:54:43;;;;;;;10.73;7.82;;;;;;;-145.79;77.79;77682.50;5309000;28;20028;-75
2023/10/01 09:57:18;;;;;;;11.43;7.40;;;;;;;-145.79;76.98;77671.91;5311744;28;20363;-75
2023/10/01 10:00:14;;;;;;;12.85;7.00;;;;;;;-145.79;77.40;77652.84;5307949;28;20020;-74
2023/10/01 10:02:54;;;;;;;13.43;10.63;;;;;;;-145.79;76.82;77646.47;5306618;28;20190;-75
2023/10/01 10:05:26;;;;;;;10.68;6.57;;;;;;;-145.79;77.01;77627.41;5312855;28;20093;-76
2023/10/01 10:08:13;;;;;;;11.82;7.85;;;;;;;-145.79;75.82;77610.44;5307353;28;20368;-76
2023/10/01 10:10:52;;;;;;;10.25;7.05;;;;;;;-145.79;75.44;77612.56;5305100;28;20020;-74
2023/10/01 10:13:48;;;;;;;13.52;10.05;;;;;;;-145.79;75.87;77604.09;5299229;28;20395;-78
2023/10/01 10:16:30;;;;;;;11.65;7.20;;;;;;;-145.79;75.87;77589.25;5302532;28;20097;-78
2023/10/01 10:22:09;;;;;;;11.52;7.03;;;;;;;-145.79;75.28;77565.94;5263348;28;20028;-75
2023/10/01 10:25:20;;;;;;;12.55;8.48;;;;;;;-145.79;74.98;77563.81;5299892;28;20378;-74
2023/10/01 10:27:56;;;;;;;13.00;7.97;;;;;;;-145.79;74.66;77546.84;5300725;28;20490;-76
2023/10/01 10:30:30;;;;;;;9.98;6.57;;;;;;;-145.79;74.33;77532.00;5301802;28;20031;-78
2023/10/01 10:33:29;;;;;;;10.57;7.28;;;;;;;-145.79;74.59;77529.88;5276855;28;20031;-75
2023/10/01 10:36:36;;;;;;;11.32;7.38;;;;;;;-145.79;73.77;77508.69;5305048;28;20032;-79
2023/10/01 10:39:15;;;;;;;10.20;7.35;;;;;;;-145.79;73.46;77504.47;5301045;28;20036;-77
2023/10/01 10:42:31;;;;;;;12.35;7.30;;;;;;;-145.79;73.12;77504.47;5305184;28;20039;-75
2023/10/01 10:45:19;;;;;;;11.15;6.90;;;;;;;-145.79;73.37;77495.97;5291345;28;20032;-76
2023/10/01 10:48:03;;;;;;;11.77;7.53;;;;;;;-145.79;73.16;77487.50;5291724;28;20391;-74
2023/10/01 10:50:53;;;;;;;11.52;7.32;;;;;;;-145.79;72.48;77474.78;5303095;28;20470;-75
2023/10/01 10:53:38;;;;;;;11.88;7.97;;;;;;;-145.79;72.16;77468.41;5289149;28;20408;-75
2023/10/01 10:56:13;;;;;;;10.63;7.40;;;;;;;-145.79;72.37;77453.59;5287126;28;20134;-73
2023/10/01 10:59:01;;;;;;;14.63;7.53;;;;;;;-145.79;71.81;77442.97;5298851;28;20139;-73
2023/10/01 11:01:44;;;;;;;12.80;7.32;;;;;;;-145.79;72.03;77432.38;5274186;28;20494;-73
2023/10/01 11:04:16;;;;;;;15.82;7.50;;;;;;;-145.79;70.04;77434.50;5278293;28;20028;-73
2023/10/01 11:07:01;;;;;;;11.52;7.03;;;;;;;-145.79;69.96;77426.03;5280268;28;20035;-74
2023/10/01 11:09:35;;;;;;;12.13;7.45;;;;;;;-145.79;69.12;77421.78;5291912;28;20024;-75
2023/10/01 11:12:19;;;;;;;11.60;7.57;;;;;;;-145.79;69.33;77415.44;5288183;28;20434;-74
2023/10/01 11:15:23;;;;;;;11.68;7.28;;;;;;;-145.79;68.73;77404.84;5300137;28;20501;-74
2023/10/01 11:18:01;;;;;;;10.13;6.68;;;;;;;-145.79;69.43;77390.00;5292673;28;20090;-75
2023/10/01 11:20:33;;;;;;;15.98;13.68;;;;;;;-145.79;68.61;77370.91;5282022;28;20028;-75
2023/10/01 11:23:08;;;;;;;11.05;7.78;;;;;;;-145.79;68.66;77356.06;5292201;28;20509;-75
2023/10/01 11:25:47;;;;;;;10.38;7.22;;;;;;;-145.79;68.81;77339.13;5303236;28;20020;-73
2023/10/01 11:28:18;;;;;;;13.07;6.88;;;;;;;-145.79;68.07;77324.28;5297781;28;20107;-73
2023/10/01 11:30:57;;;;;;;11.73;7.55;;;;;;;-145.79;67.20;77326.41;5297801;28;20546;-73
2023/10/01 11:33:31;;;;;;;11.48;7.47;;;;;;;-145.79;67.33;77315.81;5292647;28;20031;-73
2023/10/01 11:36:09;;;;;;;10.88;7.05;;;;;;;-145.79;66.05;77303.09;5303708;28;20039;-75
2023/10/01 11:38:47;;;;;;;9.23;7.18;;;;;;;-145.79;65.67;77300.97;5302000;28;20858;-74
2023/10/01 11:41:38;;;;;;;12.57;7.47;;;;;;;-145.79;65.28;77290.38;5302979;28;20490;-75
2023/10/01 11:44:35;;;;;;;9.25;7.03;;;;;;;-145.79;66.08;77267.06;5300495;28;20060;-74
2023/10/01 11:47:10;;;;;;;10.88;7.03;;;;;;;-145.79;65.35;77250.09;5293772;28;20055;-76
2023/10/01 11:49:44;;;;;;;12.27;7.00;;;;;;;-145.79;64.93;77243.75;5289441;28;20032;-76
2023/10/01 11:52:25;;;;;;;11.00;7.55;;;;;;;-145.79;65.08;77233.16;5283370;28;20025;-75
2023/10/01 11:54:56;;;;;;;10.80;7.25;;;;;;;-145.79;64.52;77224.66;5303125;28;20387;-75
2023/10/01 11:57:31;;;;;;;12.32;8.27;;;;;;;-145.79;63.47;77222.53;5302803;28;20035;-74
2023/10/01 12:00:06;;;;;;;11.18;7.68;;;;;;;-145.79;63.52;77207.72;5302240;28;20024;-74
2023/10/01 12:02:43;;;;;;;10.05;7.75;;;;;;;-145.79;62.18;77197.09;5302011;28;20445;-74
2023/10/01 12:05:16;;;;;;;10.73;7.75;;;;;;;-145.79;62.32;77171.69;5301111;28;20082;-74
2023/10/01 12:07:47;;;;;;;11.07;7.18;;;;;;;-145.79;60.50;77173.78;5300875;28;20121;-74
2023/10/01 12:10:37;;;;;;;12.90;8.75;;;;;;;-145.79;59.63;77163.19;5306815;28;20051;-75
2023/10/01 12:13:10;;;;;;;10.77;8.10;;;;;;;-145.79;59.98;77161.06;5306892;28;20054;-74
2023/10/01 12:15:51;;;;;;;12.60;8.32;;;;;;;-145.79;60.17;77152.59;5303786;28;20120;-74
2023/10/01 12:18:36;;;;;;;9.82;7.50;;;;;;;-145.79;59.12;77144.13;5305378;28;20030;-74
2023/10/01 12:21:24;;;;;;;10.88;7.30;;;;;;;-145.79;58.67;77144.13;5304094;28;20048;-74
2023/10/01 12:23:56;;;;;;;8.68;7.55;;;;;;;-145.79;58.71;77129.28;5303975;28;20047;-74
2023/10/01 12:29:13;;;;;;;12.10;8.30;;;;;;;-145.79;59.53;77105.97;5305622;28;20173;-74
2023/10/01 12:31:44;;;;;;;14.10;8.52;;;;;;;-145.79;59.83;77080.53;5307018;28;20126;-78
2023/10/01 12:34:17;;;;;;;11.77;7.75;;;;;;;-145.79;59.08;77067.81;5306606;28;20016;-79
2023/10/01 12:36:51;;;;;;;12.80;7.85;;;;;;;-145.79;58.40;77052.97;5304922;28;20024;-78
2023/10/01 12:39:27;;;;;;;14.32;9.73;;;;;;;-145.79;58.28;77042.38;5306389;28;20470;-76
2023/10/01 12:42:04;;;;;;;12.60;8.52;;;;;;;-145.79;58.10;77046.63;5305940;28;20218;-78
2023/10/01 12:44:36;;;;;;;12.63;8.77;;;;;;;-145.79;58.07;77044.50;5305815;28;20059;-74
2023/10/01 12:47:08;;;;;;;11.05;8.10;;;;;;;-145.79;57.90;77040.25;5303895;28;20024;-74
2023/10/01 12:49:42;;;;;;;12.43;8.40;;;;;;;-145.79;58.41;77027.56;5303864;28;20028;-74
2023/10/01 12:52:16;;;;;;;11.83;8.33;;;;;;;-145.79;59.03;77012.72;5303492;28;20052;-74
2023/10/01 12:54:48;;;;;;;9.88;7.18;;;;;;;-145.79;58.16;77000.00;5303737;28;20274;-74
2023/10/01 12:57:22;;;;;;;9.40;7.82;;;;;;;-145.79;55.54;76991.53;5304964;28;20061;-74
2023/10/01 13:02:48;;;;;;;11.05;8.02;;;;;;;-145.79;54.99;76995.75;5304430;28;20451;-73
2023/10/01 13:05:20;;;;;;;12.40;7.70;;;;;;;-145.79;55.55;76978.81;5303512;28;20040;-73
2023/10/01 13:07:53;;;;;;;11.35;8.13;;;;;;;-145.79;55.73;76978.81;5303568;28;20024;-73
2023/10/01 13:10:37;;;;;;;10.65;8.60;;;;;;;-145.79;56.08;76987.28;5302003;28;20116;-73
2023/10/01 13:13:09;;;;;;;10.63;8.63;;;;;;;-145.79;55.56;76970.31;5303076;28;20494;-73
2023/10/01 13:15:41;;;;;;;11.63;8.45;;;;;;;-145.79;55.06;76947.00;5301856;28;20290;-72
2023/10/01 13:18:18;;;;;;;12.38;8.65;;;;;;;-145.79;54.64;76957.59;5300024;28;20040;-74
2023/10/01 13:23:28;;;;;;;11.63;8.60;;;;;;;-145.79;53.69;76955.50;5302667;28;20051;-74
2023/10/01 13:26:06;;;;;;;11.20;8.73;;;;;;;-145.79;53.89;76961.84;5290459;28;20024;-74
2023/10/01 13:28:50;;;;;;;13.20;8.50;;;;;;;-145.79;54.11;76947.00;5302980;28;20052;-74
2023/10/01 13:34:21;;;;;;;13.10;9.05;;;;;;;-145.79;53.72;76957.59;5300454;28;20029;-73
2023/10/01 14:10:38;;;;;;;12.00;8.88;;;;;;;-145.79;54.73;76927.94;5302505;28;20459;-74
2023/10/01 14:13:12;;;;;;;9.52;7.55;;;;;;;-145.79;55.44;76919.47;5303284;28;20024;-75
2023/10/01 14:15:49;;;;;;;10.80;8.02;;;;;;;-145.79;55.43;76919.47;5302180;28;20020;-75
2023/10/01 14:18:34;;;;;;;12.43;8.25;;;;;;;-145.79;55.20;76915.22;5297425;28;20095;-75
2023/10/01 14:21:15;;;;;;;10.60;8.35;;;;;;;-145.79;55.83;76908.88;5299415;28;20058;-75
2023/10/01 14:23:46;;;;;;;11.02;8.70;;;;;;;-145.79;56.22;76889.78;5300750;28;20035;-75
2023/10/01 14:26:26;;;;;;;12.18;8.88;;;;;;;-145.79;55.92;76894.03;5300286;28;20074;-75
2023/10/01 14:28:58;;;;;;;11.27;7.35;;;;;;;-145.79;56.15;76900.38;5299778;28;20031;-75
2023/10/01 14:31:41;;;;;;;11.52;8.05;;;;;;;-145.79;55.42;76900.38;5299740;28;20544;-74
2023/10/01 14:34:14;;;;;;;9.50;7.18;;;;;;;-145.79;55.42;76910.97;5299633;28;20023;-75
2023/10/01 14:36:51;;;;;;;11.40;8.38;;;;;;;-145.79;55.62;76923.69;5298723;28;20028;-74
2023/10/01 14:39:30;;;;;;;12.75;8.93;;;;;;;-145.79;56.17;76917.34;5301529;28;20138;-73
2023/10/01 14:42:01;;;;;;;12.18;8.63;;;;;;;-145.79;56.48;76921.59;5303270;28;20024;-74
2023/10/01 14:44:42;;;;;;;9.73;7.68;;;;;;;-145.79;56.94;76927.94;5304139;28;20105;-73
2023/10/01 14:47:17;;;;;;;11.30;8.60;;;;;;;-145.79;57.17;76936.41;5304489;28;20370;-74
2023/10/01 14:49:49;;;;;;;10.80;7.97;;;;;;;-145.79;57.52;76930.06;5303226;28;20114;-75
2023/10/01 14:52:22;;;;;;;10.43;7.72;;;;;;;-145.79;57.66;76932.19;5303256;28;20633;-74
2023/10/01 14:55:00;;;;;;;10.25;7.43;;;;;;;-145.79;57.55;76936.41;5293957;28;20036;-74
2023/10/01 14:57:34;;;;;;;10.50;7.60;;;;;;;-145.79;58.07;76927.94;5282475;28;20515;-74
2023/10/01 15:00:16;;;;;;;9.63;7.50;;;;;;;-145.79;57.70;76921.59;5292192;28;20248;-75
2023/10/01 15:02:48;;;;;;;14.07;7.95;;;;;;;-145.79;56.98;76923.69;5303482;28;20024;-72
2023/10/01 15:05:20;;;;;;;11.13;7.78;;;;;;;-145.79;57.47;76915.22;5303924;28;20091;-72
2023/10/01 15:07:51;;;;;;;10.85;7.80;;;;;;;-145.79;57.28;76906.75;5304147;28;20178;-72
2023/10/01 15:10:23;;;;;;;11.07;8.05;;;;;;;-145.79;57.49;76902.50;5290403;28;20228;-71
2023/10/01 15:12:55;;;;;;;11.48;8.60;;;;;;;-145.79;57.27;76900.38;5290630;28;20028;-73
2023/10/01 15:15:41;;;;;;;10.15;8.07;;;;;;;-145.79;58.19;76900.38;5298732;28;20574;-74
2023/10/01 15:18:17;;;;;;;10.52;7.65;;;;;;;-145.79;57.84;76889.78;5294044;28;20024;-75
2023/10/01 15:20:51;;;;;;;11.52;7.85;;;;;;;-145.79;57.83;76877.06;5284060;28;20479;-73
2023/10/01 15:23:22;;;;;;;12.18;8.68;;;;;;;-145.79;58.22;76885.56;5281451;28;20027;-74
2023/10/01 15:25:55;;;;;;;10.60;8.18;;;;;;;-145.79;58.40;76896.16;5282747;28;20103;-74
2023/10/01 15:28:29;;;;;;;9.77;8.00;;;;;;;-145.79;57.69;76900.38;5303027;28;20020;-74
2023/10/01 15:31:01;;;;;;;11.60;8.02;;;;;;;-145.79;58.01;76889.78;5302727;28;20035;-73
2023/10/01 15:33:33;;;;;;;10.82;9.13;;;;;;;-145.79;57.92;76889.78;5300886;28;20107;-72
2023/10/01 15:36:05;;;;;;;12.82;8.63;;;;;;;-145.79;57.49;76896.16;5298300;28;20103;-71
2023/10/01 15:38:36;;;;;;;13.52;8.60;;;;;;;-145.79;57.99;76896.16;5298619;28;20016;-72
2023/10/01 15:41:09;;;;;;;9.90;7.93;;;;;;;-145.79;57.84;76889.78;5299428;28;20032;-72
2023/10/01 15:43:50;;;;;;;11.20;8.30;;;;;;;-145.79;57.96;76896.16;5294645;28;20024;-72
2023/10/01 15:46:25;;;;;;;10.02;7.95;;;;;;;-145.79;57.64;76896.16;5283218;28;20384;-74
2023/10/01 15:48:56;;;;;;;10.50;8.80;;;;;;;-145.79;57.76;76902.50;5285410;28;20050;-74
2023/10/01 15:51:27;;;;;;;11.73;8.55;;;;;;;-145.79;58.41;76898.25;5286012;28;20486;-74
2023/10/01 15:53:59;;;;;;;13.70;10.52;;;;;;;-145.79;58.40;76910.97;5303452;28;20454;-74
2023/10/01 15:56:30;;;;;;;13.07;10.40;;;;;;;-145.79;58.85;76913.09;5307708;28;20062;-74
2023/10/01 15:59:10;;;;;;;11.88;9.80;;;;;;;-145.79;59.12;76915.22;5306680;28;20024;-75
2023/10/01 16:01:50;;;;;;;12.27;9.15;;;;;;;-145.79;59.83;76927.94;5273703;28;20032;-74
2023/10/01 16:04:23;;;;;;;18.40;12.65;;;;;;;-145.79;60.29;76927.94;5286702;28;20032;-73
2023/10/01 16:07:01;;;;;;;15.85;14.23;;;;;;;-145.79;60.28;76932.19;5287248;28;20039;-74
2023/10/01 16:09:39;;;;;;;20.05;16.40;;;;;;;-145.79;61.21;76940.66;5307056;28;20379;-73
2023/10/01 16:12:14;;;;;;;13.00;9.25;;;;;;;-145.79;60.30;76942.78;5307133;28;20027;-74
2023/10/01 16:14:45;;;;;;;11.23;8.98;;;;;;;-145.79;60.58;76944.91;5306565;28;20052;-73
2023/10/01 16:17:19;;;;;;;12.07;9.23;;;;;;;-145.79;61.06;76951.25;5303729;28;20109;-73
2023/10/01 16:19:56;;;;;;;11.30;8.63;;;;;;;-145.79;61.50;76955.50;5284111;28;20013;-76
2023/10/01 16:22:28;;;;;;;14.48;10.30;;;;;;;-145.79;62.27;76966.09;5285368;28;20053;-73
2023/10/01 16:25:02;;;;;;;13.57;10.82;;;;;;;-145.79;62.67;76972.44;5286121;28;20158;-74
2023/10/01 16:27:34;;;;;;;12.88;10.50;;;;;;;-145.79;63.34;76972.44;5285505;28;20025;-74
2023/10/01 16:30:16;;;;;;;11.43;8.68;;;;;;;-145.79;63.73;76974.56;5307156;28;20055;-73
2023/10/01 16:32:53;;;;;;;11.20;8.20;;;;;;;-145.79;64.06;76983.03;5307051;28;20106;-73
2023/10/01 16:35:28;;;;;;;12.48;10.30;;;;;;;-145.79;64.68;76980.94;5293221;28;20028;-73
2023/10/01 16:38:05;;;;;;;15.15;11.32;;;;;;;-145.79;65.31;76983.03;5286125;28;20028;-77
2023/10/01 16:40:37;;;;;;;11.30;9.05;;;;;;;-145.79;65.80;76989.41;5285918;28;20503;-74
2023/10/01 16:43:14;;;;;;;13.05;9.30;;;;;;;-145.79;66.30;77000.00;5284744;28;20116;-74
2023/10/01 16:45:46;;;;;;;12.68;8.77;;;;;;;-145.79;66.23;77002.13;5285556;28;20028;-73
2023/10/01 16:48:29;;;;;;;13.85;9.10;;;;;;;-145.79;66.39;77000.00;5285053;28;20028;-74
2023/10/01 16:51:03;;;;;;;14.02;9.77;;;;;;;-145.79;66.74;76997.88;5286447;28;20021;-73
2023/10/01 16:53:35;;;;;;;14.65;9.65;;;;;;;-145.79;66.74;77008.47;5304594;28;20391;-73
